createdAt,value
2018-06-09T00:02:02.915Z,89.94
2018-06-09T00:04:07.847Z,90.28
2018-06-09T00:06:12.810Z,90.19
2018-06-09T00:08:18.683Z,91.22
2018-06-09T00:10:23.538Z,90.32
2018-06-09T00:12:28.302Z,91.17
2018-06-09T00:14:33.258Z,90.87
2018-06-09T00:16:38.373Z,91.41
2018-06-09T00:18:43.153Z,90.26
2018-06-09T00:20:48.010Z,89.92
2018-06-09T00:22:52.797Z,91.42
2018-06-09T00:24:57.688Z,90.83
2018-06-09T00:27:02.546Z,90.82
2018-06-09T00:29:07.034Z,90.98
2018-06-09T00:31:11.946Z,90.31
2018-06-09T00:33:16.742Z,91.42
2018-06-09T00:35:21.494Z,91.59
2018-06-09T00:37:26.283Z,92.04
2018-06-09T00:39:30.987Z,91.50
2018-06-09T00:41:35.737Z,91.06
2018-06-09T00:43:40.558Z,91.03
2018-06-09T00:45:45.386Z,91.60
2018-06-09T00:47:50.211Z,91.71
2018-06-09T00:49:54.905Z,92.51
2018-06-09T00:51:59.664Z,91.79
2018-06-09T00:54:04.517Z,92.09
2018-06-09T00:56:47.539Z,92.30
2018-06-09T00:58:52.282Z,91.97
2018-06-09T01:00:57.019Z,92.91
2018-06-09T01:03:01.839Z,92.32
2018-06-09T01:05:06.568Z,93.07
2018-06-09T01:07:10.964Z,92.66
2018-06-09T01:09:15.746Z,91.98
2018-06-09T01:11:20.527Z,91.55
2018-06-09T01:13:25.399Z,92.37
2018-06-09T01:15:30.262Z,91.96
2018-06-09T01:17:35.138Z,91.92
2018-06-09T01:19:40.069Z,91.50
2018-06-09T01:21:44.885Z,90.97
2018-06-09T01:23:49.759Z,91.67
2018-06-09T01:25:54.530Z,91.88
2018-06-09T01:27:59.263Z,92.88
2018-06-09T01:30:05.859Z,93.37
2018-06-09T01:32:10.654Z,93.75
2018-06-09T01:34:15.499Z,93.53
2018-06-09T01:36:20.204Z,91.93
2018-06-09T01:38:24.962Z,92.69
2018-06-09T01:40:29.778Z,92.78
2018-06-09T01:42:34.582Z,92.77
2018-06-09T01:44:39.352Z,93.06
2018-06-09T01:46:44.046Z,92.70
2018-06-09T01:48:48.782Z,93.82
2018-06-09T01:50:53.591Z,93.79
2018-06-09T01:52:58.565Z,93.64
2018-06-09T01:55:03.314Z,93.50
2018-06-09T01:57:08.001Z,93.31
2018-06-09T01:59:12.662Z,92.97
2018-06-09T02:01:17.399Z,91.62
2018-06-09T02:03:22.100Z,92.60
2018-06-09T02:05:26.892Z,92.89
2018-06-09T02:07:31.643Z,93.16
2018-06-09T02:09:36.448Z,92.66
2018-06-09T02:11:41.214Z,93.22
2018-06-09T02:13:45.925Z,92.64
2018-06-09T02:15:50.777Z,92.95
2018-06-09T02:17:55.478Z,92.36
2018-06-09T02:20:00.185Z,93.00
2018-06-09T02:22:04.910Z,91.46
2018-06-09T02:24:09.722Z,91.39
2018-06-09T02:26:14.460Z,91.08
2018-06-09T02:28:19.248Z,91.53
2018-06-09T02:30:23.956Z,92.27
2018-06-09T02:32:28.672Z,92.83
2018-06-09T02:34:33.486Z,92.66
2018-06-09T02:36:38.305Z,92.72
2018-06-09T02:38:43.146Z,93.16
2018-06-09T02:40:48.050Z,92.95
2018-06-09T02:42:52.777Z,93.14
2018-06-09T02:44:57.535Z,93.47
2018-06-09T02:47:02.494Z,93.35
2018-06-09T02:49:07.277Z,93.99
2018-06-09T02:51:12.208Z,94.41
2018-06-09T02:53:16.940Z,94.60
2018-06-09T02:55:21.900Z,94.66
2018-06-09T02:57:26.707Z,95.19
2018-06-09T02:59:31.570Z,95.14
2018-06-09T03:01:36.245Z,94.84
2018-06-09T03:03:41.141Z,94.46
2018-06-09T03:05:45.980Z,94.22
2018-06-09T03:07:50.800Z,94.59
2018-06-09T03:09:55.601Z,94.40
2018-06-09T03:12:00.453Z,94.66
2018-06-09T03:14:05.324Z,94.50
2018-06-09T03:16:10.361Z,94.52
2018-06-09T03:18:15.170Z,94.40
2018-06-09T03:20:19.963Z,94.92
2018-06-09T03:22:24.776Z,95.11
2018-06-09T03:24:29.666Z,95.04
2018-06-09T03:26:34.441Z,94.26
2018-06-09T03:28:39.182Z,95.21
2018-06-09T03:30:43.894Z,94.33
2018-06-09T03:32:48.980Z,93.97
2018-06-09T03:34:53.858Z,93.51
2018-06-09T03:36:58.687Z,93.83
2018-06-09T03:39:04.068Z,93.22
2018-06-09T03:41:08.858Z,92.67
2018-06-09T03:43:13.716Z,93.10
2018-06-09T03:45:18.489Z,92.93
2018-06-09T03:47:23.425Z,92.04
2018-06-09T03:49:28.298Z,91.69
2018-06-09T03:51:33.185Z,92.08
2018-06-09T03:53:38.090Z,92.22
2018-06-09T03:55:42.897Z,92.83
2018-06-09T03:57:47.883Z,92.00
2018-06-09T03:59:52.651Z,92.56
2018-06-09T04:01:57.440Z,91.67
2018-06-09T04:04:02.400Z,91.75
2018-06-09T04:06:07.349Z,91.63
2018-06-09T04:08:12.186Z,91.81
2018-06-09T04:10:16.982Z,91.17
2018-06-09T04:12:21.757Z,91.42
2018-06-09T04:14:26.486Z,91.54
2018-06-09T04:16:32.568Z,91.20
2018-06-09T04:18:37.323Z,91.13
2018-06-09T04:20:41.784Z,90.47
2018-06-09T04:22:46.889Z,90.97
2018-06-09T04:24:51.762Z,90.85
2018-06-09T04:26:56.613Z,91.06
2018-06-09T04:29:02.091Z,90.84
2018-06-09T04:31:07.117Z,91.93
2018-06-09T04:33:11.937Z,91.33
2018-06-09T04:35:16.657Z,90.66
2018-06-09T04:37:21.452Z,91.80
2018-06-09T04:39:26.164Z,91.56
2018-06-09T04:41:31.272Z,90.94
2018-06-09T04:43:36.288Z,89.62
2018-06-09T04:45:41.414Z,89.82
2018-06-09T04:47:46.298Z,89.76
2018-06-09T04:49:51.082Z,88.33
2018-06-09T04:51:55.986Z,88.80
2018-06-09T04:54:00.893Z,89.35
2018-06-09T04:56:05.870Z,89.98
2018-06-09T04:58:10.909Z,88.98
2018-06-09T05:00:15.779Z,88.68
2018-06-09T05:02:20.641Z,88.94
2018-06-09T05:04:25.493Z,87.80
2018-06-09T05:06:30.607Z,86.41
2018-06-09T05:08:35.457Z,87.09
2018-06-09T05:10:40.246Z,86.87
2018-06-09T05:12:45.113Z,85.13
2018-06-09T05:14:49.836Z,84.51
2018-06-09T05:16:54.761Z,85.36
2018-06-09T05:18:59.551Z,84.89
2018-06-09T05:21:04.456Z,84.26
2018-06-09T05:23:09.285Z,85.80
2018-06-09T05:25:14.321Z,86.71
2018-06-09T05:27:19.167Z,85.72
2018-06-09T05:29:24.094Z,86.14
2018-06-09T05:31:29.118Z,86.86
2018-06-09T05:33:33.990Z,87.41
2018-06-09T05:35:38.907Z,88.95
2018-06-09T05:37:45.290Z,87.85
2018-06-09T05:39:50.208Z,87.41
2018-06-09T05:41:55.152Z,86.99
2018-06-09T05:44:00.039Z,86.91
2018-06-09T05:46:05.320Z,86.40
2018-06-09T05:48:10.365Z,86.38
2018-06-09T05:50:15.460Z,87.08
2018-06-09T05:52:20.456Z,86.93
2018-06-09T05:54:25.354Z,85.62
2018-06-09T05:56:30.393Z,86.49
2018-06-09T05:58:35.584Z,86.70
2018-06-09T06:00:40.435Z,86.82
2018-06-09T06:02:47.380Z,84.54
2018-06-09T06:04:53.302Z,85.43
2018-06-09T06:06:59.843Z,84.73
2018-06-09T06:09:06.402Z,84.18
2018-06-09T06:11:11.782Z,83.62
2018-06-09T06:13:16.661Z,83.63
2018-06-09T06:15:21.444Z,82.76
2018-06-09T06:17:26.491Z,81.08
2018-06-09T06:19:31.255Z,80.25
2018-06-09T06:21:36.080Z,80.44
2018-06-09T06:23:40.856Z,80.65
2018-06-09T06:25:46.064Z,81.04
2018-06-09T06:27:51.031Z,80.37
2018-06-09T06:29:57.777Z,80.37
2018-06-09T06:32:03.007Z,80.65
2018-06-09T06:34:08.958Z,80.50
2018-06-09T06:36:13.851Z,80.49
2018-06-09T06:38:18.883Z,78.10
2018-06-09T06:40:23.890Z,78.59
2018-06-09T06:42:29.775Z,78.73
2018-06-09T06:44:35.108Z,79.36
2018-06-09T06:46:40.205Z,77.29
2018-06-09T06:48:45.543Z,77.43
2018-06-09T06:50:50.336Z,75.41
2018-06-09T06:52:55.189Z,77.50
2018-06-09T06:55:00.004Z,78.08
2018-06-09T06:57:04.590Z,77.63
2018-06-09T06:59:09.722Z,76.24
2018-06-09T07:01:14.487Z,77.48
2018-06-09T07:03:19.241Z,76.92
2018-06-09T07:05:24.003Z,75.85
2018-06-09T07:07:28.881Z,76.00
2018-06-09T07:09:33.718Z,75.07
2018-06-09T07:11:38.645Z,74.82
2018-06-09T07:13:43.570Z,73.22
2018-06-09T07:15:48.424Z,74.79
2018-06-09T07:17:53.226Z,73.38
2018-06-09T07:19:57.986Z,74.93
2018-06-09T07:22:02.850Z,75.24
2018-06-09T07:24:07.550Z,73.74
2018-06-09T07:26:12.344Z,72.87
2018-06-09T07:28:17.213Z,73.45
2018-06-09T07:30:21.939Z,72.48
2018-06-09T07:32:26.799Z,72.89
2018-06-09T07:34:31.474Z,73.05
2018-06-09T07:36:36.197Z,72.82
2018-06-09T07:38:41.784Z,72.05
2018-06-09T07:40:46.926Z,71.12
2018-06-09T07:42:51.877Z,72.46
2018-06-09T07:44:56.714Z,71.66
2018-06-09T07:47:01.543Z,71.79
2018-06-09T07:49:06.375Z,72.28
2018-06-09T07:51:11.182Z,71.61
2018-06-09T07:53:16.003Z,72.86
2018-06-09T07:55:20.703Z,72.00
2018-06-09T07:57:25.479Z,72.06
2018-06-09T07:59:30.313Z,72.35
2018-06-09T08:01:35.068Z,71.69
2018-06-09T08:05:54.897Z,69.46
2018-06-09T08:07:59.807Z,69.46
2018-06-09T08:10:04.561Z,69.25
2018-06-09T08:12:09.597Z,67.85
2018-06-09T08:14:14.529Z,68.85
2018-06-09T08:16:19.458Z,69.89
2018-06-09T08:18:24.392Z,69.11
2018-06-09T08:20:29.384Z,68.93
2018-06-09T08:22:34.661Z,69.59
2018-06-09T08:24:39.416Z,68.43
2018-06-09T08:26:44.226Z,68.44
2018-06-09T08:28:48.945Z,70.87
2018-06-09T08:30:53.681Z,69.69
2018-06-09T08:32:58.386Z,71.90
2018-06-09T08:35:03.148Z,72.26
2018-06-09T08:37:07.838Z,71.88
2018-06-09T08:39:12.700Z,70.58
2018-06-09T08:41:17.604Z,70.01
2018-06-09T08:43:22.371Z,71.39
2018-06-09T08:45:27.219Z,70.11
2018-06-09T08:47:32.021Z,69.06
2018-06-09T08:49:36.816Z,69.54
2018-06-09T08:51:41.607Z,70.23
2018-06-09T08:53:46.402Z,69.11
2018-06-09T08:55:51.468Z,70.58
2018-06-09T08:57:56.167Z,70.10
2018-06-09T09:00:01.128Z,69.01
2018-06-09T09:02:06.338Z,68.74
2018-06-09T09:04:11.237Z,69.81
2018-06-09T09:06:16.068Z,68.16
2018-06-09T09:08:20.874Z,68.71
2018-06-09T09:10:25.643Z,67.12
2018-06-09T09:12:30.388Z,68.19
2018-06-09T09:14:35.148Z,66.82
2018-06-09T09:16:39.919Z,67.09
2018-06-09T09:18:44.802Z,66.63
2018-06-09T09:20:50.004Z,64.67
2018-06-09T09:22:54.715Z,64.43
2018-06-09T09:25:00.570Z,60.44
2018-06-09T09:27:05.472Z,62.77
2018-06-09T09:29:10.320Z,63.48
2018-06-09T09:31:14.773Z,62.46
2018-06-09T09:33:20.220Z,63.13
2018-06-09T09:35:25.015Z,63.15
2018-06-09T09:37:29.788Z,64.17
2018-06-09T09:39:34.633Z,63.77
2018-06-09T09:41:40.517Z,63.99
2018-06-09T09:43:45.185Z,61.38
2018-06-09T09:45:49.942Z,60.84
2018-06-09T09:47:54.665Z,60.03
2018-06-09T09:49:59.416Z,60.88
2018-06-09T09:52:04.217Z,61.90
2018-06-09T09:54:09.011Z,60.40
2018-06-09T09:56:14.675Z,60.63
2018-06-09T09:58:19.519Z,60.38
2018-06-09T10:00:29.389Z,60.23
2018-06-09T10:02:34.287Z,59.42
2018-06-09T10:04:39.386Z,60.86
2018-06-09T10:06:44.070Z,61.31
2018-06-09T10:08:48.849Z,60.54
2018-06-09T10:10:53.663Z,60.30
2018-06-09T10:12:58.496Z,59.71
2018-06-09T10:15:05.245Z,59.63
2018-06-09T10:17:10.469Z,59.17
2018-06-09T10:19:15.449Z,58.32
2018-06-09T10:21:20.454Z,59.11
2018-06-09T10:23:25.460Z,59.39
2018-06-09T10:25:30.417Z,59.34
2018-06-09T10:27:35.353Z,60.54
2018-06-09T10:29:40.504Z,59.17
2018-06-09T10:31:45.537Z,60.77
2018-06-09T10:33:50.695Z,60.30
2018-06-09T10:35:55.572Z,58.10
2018-06-09T10:38:00.563Z,60.74
2018-06-09T10:40:05.609Z,59.32
2018-06-09T10:42:10.719Z,60.32
2018-06-09T10:44:15.648Z,59.58
2018-06-09T10:46:20.962Z,57.48
2018-06-09T10:48:25.838Z,58.75
2018-06-09T10:50:30.667Z,58.91
2018-06-09T10:52:35.709Z,59.52
2018-06-09T10:54:40.705Z,58.89
2018-06-09T10:56:45.688Z,58.92
2018-06-09T10:58:50.890Z,59.60
2018-06-09T11:00:56.112Z,59.81
2018-06-09T11:03:01.242Z,59.75
2018-06-09T11:05:06.949Z,58.75
2018-06-09T11:07:12.063Z,58.78
2018-06-09T11:09:16.906Z,58.99
2018-06-09T11:11:21.702Z,59.88
2018-06-09T11:13:26.607Z,59.16
2018-06-09T11:15:31.728Z,58.54
2018-06-09T11:17:36.772Z,58.84
2018-06-09T11:19:41.789Z,60.38
2018-06-09T11:21:46.927Z,60.14
2018-06-09T11:23:52.101Z,59.28
2018-06-09T11:25:57.177Z,59.28
2018-06-09T11:28:02.211Z,59.24
2018-06-09T11:30:07.215Z,58.94
2018-06-09T11:32:12.065Z,57.77
2018-06-09T11:34:16.988Z,57.93
2018-06-09T11:36:21.905Z,59.04
2018-06-09T11:38:27.093Z,58.07
2018-06-09T11:40:32.183Z,57.88
2018-06-09T11:42:37.260Z,57.68
2018-06-09T11:44:42.356Z,57.89
2018-06-09T11:46:47.312Z,57.33
2018-06-09T11:48:53.430Z,57.32
2018-06-09T11:50:58.617Z,57.51
2018-06-09T11:53:03.680Z,58.42
2018-06-09T11:55:08.944Z,58.43
2018-06-09T11:57:14.280Z,58.56
2018-06-09T11:59:19.181Z,57.76
2018-06-09T12:01:25.092Z,57.23
2018-06-09T12:03:30.132Z,57.27
2018-06-09T12:05:35.235Z,56.96
2018-06-09T12:07:40.240Z,55.61
2018-06-09T12:09:45.373Z,55.44
2018-06-09T12:11:50.309Z,57.26
2018-06-09T12:13:55.619Z,57.15
2018-06-09T12:16:01.570Z,57.78
2018-06-09T12:18:07.477Z,57.52
2018-06-09T12:20:12.636Z,57.33
2018-06-09T12:22:17.811Z,56.82
2018-06-09T12:24:23.387Z,56.24
2018-06-09T12:26:28.456Z,55.16
2018-06-09T12:28:33.487Z,55.98
2018-06-09T12:30:39.061Z,55.49
2018-06-09T12:32:44.423Z,53.81
2018-06-09T12:34:50.158Z,54.33
2018-06-09T12:36:55.124Z,55.14
2018-06-09T12:39:00.030Z,54.50
2018-06-09T12:41:05.162Z,53.22
2018-06-09T12:43:10.567Z,54.16
2018-06-09T12:45:15.849Z,53.43
2018-06-09T12:47:21.408Z,53.75
2018-06-09T12:49:26.397Z,52.55
2018-06-09T12:51:31.435Z,53.33
2018-06-09T12:53:36.316Z,54.30
2018-06-09T12:55:41.232Z,55.16
2018-06-09T12:57:46.059Z,53.16
2018-06-09T12:59:51.106Z,55.27
2018-06-09T13:01:56.107Z,56.07
2018-06-09T13:04:01.053Z,55.98
2018-06-09T13:06:06.075Z,55.91
2018-06-09T13:08:11.172Z,55.85
2018-06-09T13:10:16.049Z,56.17
2018-06-09T13:12:20.911Z,57.49
2018-06-09T13:14:25.976Z,55.70
2018-06-09T13:16:31.087Z,52.14
2018-06-09T13:18:36.337Z,53.31
2018-06-09T13:20:41.646Z,53.72
2018-06-09T13:22:46.644Z,53.07
2018-06-09T13:24:51.776Z,53.19
2018-06-09T13:26:58.100Z,54.46
2018-06-09T13:29:09.978Z,54.62
2018-06-09T13:31:14.978Z,53.83
2018-06-09T13:33:20.116Z,53.34
2018-06-09T13:35:25.124Z,52.91
2018-06-09T13:37:30.123Z,51.92
2018-06-09T13:39:35.198Z,52.94
2018-06-09T13:41:40.103Z,52.55
2018-06-09T13:43:45.048Z,52.42
2018-06-09T13:45:49.984Z,50.76
2018-06-09T13:47:57.689Z,52.91
2018-06-09T13:50:08.276Z,52.05
2018-06-09T13:52:13.293Z,51.56
2018-06-09T13:54:18.284Z,51.92
2018-06-09T13:56:23.379Z,51.93
2018-06-09T13:58:28.390Z,50.54
2018-06-09T14:00:33.293Z,49.32
2018-06-09T14:02:38.162Z,48.68
2018-06-09T14:06:46.065Z,47.42
2018-06-09T14:11:06.097Z,49.99
2018-06-09T14:13:11.080Z,49.18
2018-06-09T14:15:16.209Z,48.80
2018-06-09T14:17:21.312Z,50.00
2018-06-09T14:19:26.194Z,49.75
2018-06-09T14:21:31.293Z,49.12
2018-06-09T14:23:36.016Z,48.54
2018-06-09T14:25:40.994Z,45.78
2018-06-09T14:27:46.166Z,46.71
2018-06-09T14:29:51.179Z,47.15
2018-06-09T14:31:56.134Z,49.53
2018-06-09T14:34:01.458Z,50.66
2018-06-09T14:36:06.696Z,49.66
2018-06-09T14:38:11.774Z,49.45
2018-06-09T14:40:16.629Z,50.40
2018-06-09T14:42:21.595Z,50.34
2018-06-09T14:44:26.448Z,51.19
2018-06-09T14:46:31.338Z,49.36
2018-06-09T14:48:38.285Z,50.16
2018-06-09T14:50:43.501Z,51.30
2018-06-09T14:52:48.495Z,52.61
2018-06-09T14:54:53.352Z,50.87
2018-06-09T14:56:58.440Z,51.21
2018-06-09T14:59:03.402Z,51.35
2018-06-09T15:01:08.549Z,50.50
2018-06-09T15:03:13.497Z,52.60
2018-06-09T15:05:18.527Z,52.88
2018-06-09T15:07:23.632Z,53.00
2018-06-09T15:09:28.492Z,51.25
2018-06-09T15:11:34.307Z,50.55
2018-06-09T15:13:39.430Z,50.43
2018-06-09T15:15:44.558Z,50.19
2018-06-09T15:17:49.449Z,51.79
2018-06-09T15:19:54.521Z,51.03
2018-06-09T15:21:59.586Z,50.74
2018-06-09T15:24:04.606Z,49.22
2018-06-09T15:26:09.666Z,49.79
2018-06-09T15:28:14.637Z,50.91
2018-06-09T15:30:19.868Z,50.82
2018-06-09T15:32:25.000Z,51.54
2018-06-09T15:34:30.347Z,49.22
2018-06-09T15:36:35.923Z,50.79
2018-06-09T15:38:41.151Z,51.21
2018-06-09T15:40:46.230Z,51.61
2018-06-09T15:42:51.226Z,51.42
2018-06-09T15:44:56.301Z,51.65
2018-06-09T15:47:01.432Z,51.41
2018-06-09T15:49:06.900Z,49.92
2018-06-09T15:51:11.977Z,50.24
2018-06-09T15:53:19.711Z,51.15
2018-06-09T15:55:24.709Z,50.86
2018-06-09T15:57:29.684Z,51.22
2018-06-09T15:59:34.728Z,50.99
2018-06-09T16:01:39.735Z,50.00
2018-06-09T16:03:44.689Z,50.34
2018-06-09T16:05:49.873Z,50.53
2018-06-09T16:07:54.836Z,49.14
2018-06-09T16:09:59.662Z,49.35
2018-06-09T16:12:04.493Z,50.88
2018-06-09T16:14:10.115Z,50.71
2018-06-09T16:16:16.593Z,50.21
2018-06-09T16:18:21.693Z,51.07
2018-06-09T16:20:26.854Z,50.96
2018-06-09T16:22:31.948Z,50.63
2018-06-09T16:24:36.852Z,50.25
2018-06-09T16:26:41.950Z,50.24
2018-06-09T16:28:46.802Z,49.45
2018-06-09T16:30:54.539Z,49.90
2018-06-09T16:32:59.439Z,49.05
2018-06-09T16:35:04.361Z,47.89
2018-06-09T16:37:09.367Z,49.02
2018-06-09T16:39:14.377Z,48.38
2018-06-09T16:41:19.390Z,49.63
2018-06-09T16:43:24.277Z,49.72
2018-06-09T16:45:29.206Z,49.19
2018-06-09T16:47:34.134Z,50.34
2018-06-09T16:49:39.209Z,49.57
2018-06-09T16:51:44.165Z,48.66
2018-06-09T16:53:49.012Z,49.38
2018-06-09T16:55:53.809Z,48.86
2018-06-09T16:57:58.714Z,47.94
2018-06-09T17:00:03.773Z,47.73
2018-06-09T17:02:08.669Z,48.80
2018-06-09T17:04:13.366Z,49.07
2018-06-09T17:06:18.233Z,49.20
2018-06-09T17:08:23.662Z,48.32
2018-06-09T17:10:28.426Z,48.11
2018-06-09T17:12:33.212Z,50.49
2018-06-09T17:14:37.998Z,48.88
2018-06-09T17:16:43.233Z,48.82
2018-06-09T17:18:48.139Z,51.25
2018-06-09T17:20:53.348Z,49.26
2018-06-09T17:22:58.529Z,48.36
2018-06-09T17:25:03.626Z,51.17
2018-06-09T17:27:08.672Z,50.39
2018-06-09T17:29:13.599Z,50.10
2018-06-09T17:31:18.493Z,49.95
2018-06-09T17:33:23.485Z,51.57
2018-06-09T17:35:28.844Z,50.96
2018-06-09T17:37:34.246Z,50.94
2018-06-09T17:39:39.238Z,51.30
2018-06-09T17:41:44.134Z,50.86
2018-06-09T17:43:49.010Z,52.18
2018-06-09T17:45:53.992Z,51.41
2018-06-09T17:47:58.938Z,52.39
2018-06-09T17:50:04.059Z,51.64
2018-06-09T17:52:08.926Z,52.68
2018-06-09T17:54:13.798Z,54.14
2018-06-09T17:56:18.618Z,52.89
2018-06-09T17:58:24.473Z,53.82
2018-06-09T18:00:29.474Z,53.74
2018-06-09T18:02:34.395Z,53.00
2018-06-09T18:04:39.314Z,53.75
2018-06-09T18:06:45.615Z,54.32
2018-06-09T18:08:50.998Z,53.42
2018-06-09T18:10:55.924Z,52.44
2018-06-09T18:13:00.835Z,53.65
2018-06-09T18:15:05.694Z,54.33
2018-06-09T18:17:10.475Z,53.99
2018-06-09T18:19:15.299Z,54.68
2018-06-09T18:21:20.294Z,55.14
2018-06-09T18:23:25.193Z,54.76
2018-06-09T18:25:30.148Z,55.88
2018-06-09T18:27:35.153Z,55.68
2018-06-09T18:29:39.957Z,57.22
2018-06-09T18:31:44.795Z,56.73
2018-06-09T18:33:49.972Z,56.83
2018-06-09T18:35:54.815Z,57.21
2018-06-09T18:37:59.657Z,58.37
2018-06-09T18:40:04.661Z,58.84
2018-06-09T18:42:09.594Z,58.70
2018-06-09T18:44:14.344Z,59.03
2018-06-09T18:46:19.215Z,58.67
2018-06-09T18:48:23.981Z,58.31
2018-06-09T18:50:28.923Z,60.43
2018-06-09T18:52:33.788Z,59.92
2018-06-09T18:54:38.948Z,59.67
2018-06-09T18:56:43.943Z,58.92
2018-06-09T18:58:49.046Z,59.09
2018-06-09T19:00:54.298Z,59.25
2018-06-09T19:02:59.769Z,59.10
2018-06-09T19:05:04.824Z,59.27
2018-06-09T19:07:09.741Z,58.21
2018-06-09T19:09:14.785Z,59.54
2018-06-09T19:11:19.817Z,60.31
2018-06-09T19:13:25.136Z,60.18
2018-06-09T19:15:30.255Z,59.79
2018-06-09T19:17:35.328Z,59.67
2018-06-09T19:19:40.415Z,59.03
2018-06-09T19:21:45.292Z,59.48
2018-06-09T19:23:50.186Z,60.98
2018-06-09T19:25:55.076Z,59.91
2018-06-09T19:27:59.962Z,60.56
2018-06-09T19:30:05.109Z,59.61
2018-06-09T19:32:10.066Z,61.03
2018-06-09T19:34:14.871Z,60.54
2018-06-09T19:36:19.685Z,61.00
2018-06-09T19:38:24.544Z,60.98
2018-06-09T19:40:29.389Z,61.49
2018-06-09T19:42:34.426Z,62.13
2018-06-09T19:44:39.349Z,62.56
2018-06-09T19:46:44.217Z,62.37
2018-06-09T19:48:49.266Z,61.96
2018-06-09T19:50:54.568Z,62.92
2018-06-09T19:52:59.742Z,63.09
2018-06-09T19:55:04.592Z,63.56
2018-06-09T19:57:09.799Z,62.54
2018-06-09T19:59:14.641Z,62.12
2018-06-09T20:01:19.627Z,62.98
2018-06-09T20:03:25.046Z,62.89
2018-06-09T20:05:29.858Z,63.34
2018-06-09T20:07:34.780Z,64.11
2018-06-09T20:09:40.061Z,64.11
2018-06-09T20:11:45.078Z,63.40
2018-06-09T20:13:49.974Z,64.20
2018-06-09T20:15:54.935Z,64.11
2018-06-09T20:18:00.029Z,63.64
2018-06-09T20:20:07.788Z,64.67
2018-06-09T20:22:12.909Z,63.85
2018-06-09T20:24:17.931Z,63.86
2018-06-09T20:26:22.799Z,63.26
2018-06-09T20:28:28.041Z,63.28
2018-06-09T20:30:32.963Z,63.73
2018-06-09T20:32:37.809Z,63.90
2018-06-09T20:34:42.793Z,64.31
2018-06-09T20:36:48.052Z,63.51
2018-06-09T20:38:53.598Z,63.75
2018-06-09T20:40:58.357Z,64.51
2018-06-09T20:43:03.291Z,65.27
2018-06-09T20:45:08.250Z,64.72
2018-06-09T20:47:13.305Z,65.34
2018-06-09T20:49:18.684Z,64.90
2018-06-09T20:51:23.653Z,65.65
2018-06-09T20:53:28.452Z,65.28
2018-06-09T20:55:33.294Z,64.78
2018-06-09T20:57:38.148Z,65.86
2018-06-09T20:59:42.989Z,65.84
2018-06-09T21:01:47.934Z,64.80
2018-06-09T21:03:52.678Z,65.98
2018-06-09T21:05:57.835Z,65.69
2018-06-09T21:08:03.153Z,66.88
2018-06-09T21:10:08.036Z,67.06
2018-06-09T21:12:13.043Z,67.31
2018-06-09T21:14:17.875Z,67.20
2018-06-09T21:16:22.758Z,66.79
2018-06-09T21:18:27.631Z,67.15
2018-06-09T21:20:32.443Z,67.30
2018-06-09T21:22:37.406Z,67.84
2018-06-09T21:24:42.294Z,67.81
2018-06-09T21:26:52.205Z,68.11
2018-06-09T21:28:57.506Z,68.49
2018-06-09T21:31:07.459Z,67.07
2018-06-09T21:35:35.914Z,68.70
2018-06-09T21:37:47.461Z,68.85
2018-06-09T21:39:58.867Z,68.30
2018-06-09T21:42:09.005Z,69.27
2018-06-09T21:44:14.608Z,69.57
2018-06-09T21:46:24.578Z,69.77
2018-06-09T21:48:29.609Z,69.77
2018-06-09T21:50:34.606Z,69.65
2018-06-09T21:52:39.621Z,69.59
2018-06-09T21:54:44.757Z,68.59
2018-06-09T21:56:49.684Z,69.12
2018-06-09T21:58:54.716Z,68.64
2018-06-09T22:00:59.626Z,70.07
2018-06-09T22:03:04.599Z,69.36
2018-06-09T22:05:09.637Z,69.54
2018-06-09T22:07:14.530Z,69.74
2018-06-09T22:09:19.472Z,69.91
2018-06-09T22:11:24.276Z,69.34
2018-06-09T22:13:29.753Z,73.14
2018-06-09T22:15:34.491Z,78.00
2018-06-09T22:17:39.438Z,83.55
2018-06-09T22:19:44.318Z,86.37
2018-06-09T22:21:49.312Z,87.21
2018-06-09T22:23:54.000Z,85.47
2018-06-09T22:26:00.698Z,86.61
2018-06-09T22:28:05.459Z,87.16
2018-06-09T22:30:10.215Z,87.99
2018-06-09T22:32:14.911Z,88.84
2018-06-09T22:34:19.688Z,87.67
2018-06-09T22:36:24.474Z,88.04
2018-06-09T22:38:29.586Z,89.90
2018-06-09T22:40:34.444Z,91.46
2018-06-09T22:42:39.315Z,90.97
2018-06-09T22:44:44.112Z,90.82
2018-06-09T22:46:48.949Z,91.26
2018-06-09T22:48:53.568Z,90.58
2018-06-09T22:50:58.311Z,89.37
2018-06-09T22:53:03.110Z,88.21
2018-06-09T22:55:07.882Z,87.01
2018-06-09T22:57:12.695Z,86.51
2018-06-09T22:59:17.651Z,88.21
2018-06-09T23:01:22.502Z,89.18
2018-06-09T23:03:27.447Z,90.78
2018-06-09T23:05:32.316Z,91.50
2018-06-09T23:07:37.107Z,91.87
2018-06-09T23:09:42.436Z,93.00
2018-06-09T23:11:47.378Z,91.94
2018-06-09T23:13:52.131Z,91.68
2018-06-09T23:15:57.404Z,91.51
2018-06-09T23:18:02.315Z,91.33
2018-06-09T23:20:07.283Z,92.17
2018-06-09T23:22:12.122Z,91.46
2018-06-09T23:24:16.827Z,89.47
2018-06-09T23:26:21.663Z,89.77
2018-06-09T23:28:26.714Z,89.81
2018-06-09T23:30:31.481Z,90.99
2018-06-09T23:32:36.219Z,89.29
2018-06-09T23:34:40.898Z,89.58
2018-06-09T23:36:45.786Z,88.86
2018-06-09T23:38:50.789Z,88.09
2018-06-09T23:40:55.480Z,88.99
2018-06-09T23:43:00.307Z,89.45
2018-06-09T23:45:05.266Z,89.94
2018-06-09T23:47:10.042Z,89.82
2018-06-09T23:49:14.838Z,90.47
2018-06-09T23:51:19.716Z,91.04
2018-06-09T23:53:26.474Z,91.05
2018-06-09T23:55:31.345Z,91.45
2018-06-09T23:57:36.128Z,92.89
2018-06-09T23:59:40.882Z,93.74
